Feasterville Trevose, Pennsylvania
Current Conditions -  °F | °C
As of 2:54 AM on Wednesday 22 Oct 2014 (Local Time) from KPNE Reporting Station
Broken Clouds Broken Clouds  
Wind Chill: 57°   Ceiling: 1400
Heat Index: 57°   Visibility: 10mi
Dew Point: 49°   Wind: 13mph
Humidity: 74%   Direction: 20°NNE
Pressure: 29.86"   Gusts: NA
Location:  40.15°N, 74.98°W
Report Text: KPNE 220654Z 02011KT 10SM BKN014 14/09 A2986 RMK AO2 SLP112 T01390094 $
Loading
Personal Weather Stations






























Interactive Weather Map
Tropical Storm Tracking
New forecast layout! Learn more

10-Day Weather Forecast

Advertisements
Track Severe Weather on mobile